sensor_id;sensor_type;location;lat;lon;timestamp;pressure;altitude;pressure_sealevel;temperature;humidity
5500;BME280;2772;42.700;23.304;2023-03-19T00:01:24;95674.72;;;6.33;100.00
5500;BME280;2772;42.700;23.304;2023-03-19T00:03:52;95677.38;;;6.38;100.00
5500;BME280;2772;42.700;23.304;2023-03-19T00:06:19;95687.94;;;6.18;100.00
5500;BME280;2772;42.700;23.304;2023-03-19T00:08:46;95685.53;;;5.91;100.00
5500;BME280;2772;42.700;23.304;2023-03-19T00:11:12;95682.63;;;5.88;100.00
5500;BME280;2772;42.700;23.304;2023-03-19T00:13:39;95682.63;;;5.88;100.00
5500;BME280;2772;42.700;23.304;2023-03-19T00:16:06;95667.25;;;5.80;100.00
5500;BME280;2772;42.700;23.304;2023-03-19T00:18:33;95688.13;;;5.81;100.00
5500;BME280;2772;42.700;23.304;2023-03-19T00:21:02;95682.59;;;5.83;100.00
5500;BME280;2772;42.700;23.304;2023-03-19T00:23:28;95674.63;;;5.78;100.00
5500;BME280;2772;42.700;23.304;2023-03-19T00:25:55;95672.84;;;5.88;100.00
5500;BME280;2772;42.700;23.304;2023-03-19T00:28:22;95674.69;;;5.88;100.00
5500;BME280;2772;42.700;23.304;2023-03-19T00:30:50;95663.81;;;5.74;100.00
5500;BME280;2772;42.700;23.304;2023-03-19T00:33:17;95669.34;;;5.78;100.00
5500;BME280;2772;42.700;23.304;2023-03-19T00:35:44;95671.09;;;5.37;100.00
5500;BME280;2772;42.700;23.304;2023-03-19T00:38:13;95668.44;;;5.27;100.00
5500;BME280;2772;42.700;23.304;2023-03-19T00:40:41;95667.38;;;5.28;100.00
5500;BME280;2772;42.700;23.304;2023-03-19T00:43:08;95663.44;;;5.26;100.00
5500;BME280;2772;42.700;23.304;2023-03-19T00:45:34;95653.91;;;5.20;100.00
5500;BME280;2772;42.700;23.304;2023-03-19T00:48:01;95650.69;;;5.13;100.00
5500;BME280;2772;42.700;23.304;2023-03-19T00:50:28;95651.25;;;5.20;100.00
5500;BME280;2772;42.700;23.304;2023-03-19T00:52:55;95646.81;;;5.30;100.00
5500;BME280;2772;42.700;23.304;2023-03-19T00:55:23;95642.34;;;5.46;100.00
5500;BME280;2772;42.700;23.304;2023-03-19T00:57:51;95647.06;;;5.39;100.00
5500;BME280;2772;42.700;23.304;2023-03-19T01:00:19;95643.94;;;5.42;100.00
5500;BME280;2772;42.700;23.304;2023-03-19T01:02:45;95646.84;;;5.50;100.00
5500;BME280;2772;42.700;23.304;2023-03-19T01:05:12;95633.41;;;5.57;100.00
5500;BME280;2772;42.700;23.304;2023-03-19T01:07:39;95641.88;;;5.69;100.00
5500;BME280;2772;42.700;23.304;2023-03-19T01:10:07;95643.97;;;5.67;100.00
5500;BME280;2772;42.700;23.304;2023-03-19T01:12:35;95638.16;;;5.75;100.00
5500;BME280;2772;42.700;23.304;2023-03-19T01:15:03;95637.91;;;5.81;100.00
5500;BME280;2772;42.700;23.304;2023-03-19T01:17:31;95639.22;;;5.74;100.00
5500;BME280;2772;42.700;23.304;2023-03-19T01:19:58;95635.53;;;5.80;100.00
5500;BME280;2772;42.700;23.304;2023-03-19T01:22:24;95635.00;;;5.78;100.00
5500;BME280;2772;42.700;23.304;2023-03-19T01:24:52;95627.13;;;5.83;100.00
5500;BME280;2772;42.700;23.304;2023-03-19T01:27:19;95634.00;;;5.84;100.00
5500;BME280;2772;42.700;23.304;2023-03-19T01:29:47;95625.22;;;5.73;100.00
5500;BME280;2772;42.700;23.304;2023-03-19T01:32:14;95624.72;;;5.71;100.00
5500;BME280;2772;42.700;23.304;2023-03-19T01:34:40;95631.53;;;5.62;100.00
5500;BME280;2772;42.700;23.304;2023-03-19T01:37:07;95631.81;;;5.51;100.00
5500;BME280;2772;42.700;23.304;2023-03-19T01:39:34;95638.94;;;5.50;100.00
5500;BME280;2772;42.700;23.304;2023-03-19T01:42:01;95635.19;;;5.31;100.00
5500;BME280;2772;42.700;23.304;2023-03-19T01:44:29;95633.31;;;5.27;100.00
5500;BME280;2772;42.700;23.304;2023-03-19T01:47:01;95635.16;;;5.21;100.00
5500;BME280;2772;42.700;23.304;2023-03-19T01:49:29;95640.69;;;5.15;100.00
5500;BME280;2772;42.700;23.304;2023-03-19T01:51:57;95636.69;;;5.02;100.00
5500;BME280;2772;42.700;23.304;2023-03-19T01:54:25;95640.09;;;5.08;100.00
5500;BME280;2772;42.700;23.304;2023-03-19T01:56:57;95644.63;;;5.07;100.00
5500;BME280;2772;42.700;23.304;2023-03-19T01:59:29;95636.97;;;5.06;100.00
5500;BME280;2772;42.700;23.304;2023-03-19T02:02:00;95630.09;;;5.10;100.00
5500;BME280;2772;42.700;23.304;2023-03-19T02:04:30;95643.81;;;5.07;100.00
5500;BME280;2772;42.700;23.304;2023-03-19T02:06:58;95639.59;;;5.06;100.00
5500;BME280;2772;42.700;23.304;2023-03-19T02:09:26;95636.94;;;5.11;100.00
5500;BME280;2772;42.700;23.304;2023-03-19T02:11:55;95631.19;;;5.14;100.00
5500;BME280;2772;42.700;23.304;2023-03-19T02:14:23;95629.06;;;5.16;100.00
5500;BME280;2772;42.700;23.304;2023-03-19T02:16:50;95620.94;;;5.32;100.00
5500;BME280;2772;42.700;23.304;2023-03-19T02:19:25;95636.03;;;5.42;100.00
5500;BME280;2772;42.700;23.304;2023-03-19T02:21:54;95631.19;;;5.24;100.00
5500;BME280;2772;42.700;23.304;2023-03-19T02:24:24;95635.16;;;5.16;100.00
5500;BME280;2772;42.700;23.304;2023-03-19T02:26:53;95633.31;;;5.17;100.00
5500;BME280;2772;42.700;23.304;2023-03-19T02:29:21;95624.09;;;5.24;100.00
5500;BME280;2772;42.700;23.304;2023-03-19T02:31:48;95633.31;;;5.27;100.00
5500;BME280;2772;42.700;23.304;2023-03-19T02:34:33;95647.81;;;5.19;100.00
5500;BME280;2772;42.700;23.304;2023-03-19T02:37:03;95637.53;;;5.18;100.00
5500;BME280;2772;42.700;23.304;2023-03-19T02:39:33;95644.09;;;5.10;100.00
5500;BME280;2772;42.700;23.304;2023-03-19T02:42:05;95642.50;;;5.09;100.00
5500;BME280;2772;42.700;23.304;2023-03-19T02:44:32;95636.69;;;5.12;100.00
5500;BME280;2772;42.700;23.304;2023-03-19T02:46:59;95639.59;;;5.06;100.00
5500;BME280;2772;42.700;23.304;2023-03-19T02:49:25;95655.16;;;5.02;100.00
5500;BME280;2772;42.700;23.304;2023-03-19T02:51:52;95658.97;;;4.79;100.00
5500;BME280;2772;42.700;23.304;2023-03-19T02:54:19;95666.13;;;4.79;100.00
5500;BME280;2772;42.700;23.304;2023-03-19T02:56:46;95657.91;;;4.75;100.00
5500;BME280;2772;42.700;23.304;2023-03-19T02:59:14;95665.25;;;4.63;100.00
5500;BME280;2772;42.700;23.304;2023-03-19T03:01:41;95662.31;;;4.60;100.00
5500;BME280;2772;42.700;23.304;2023-03-19T03:04:08;95652.00;;;4.53;100.00
5500;BME280;2772;42.700;23.304;2023-03-19T03:06:35;95669.25;;;4.34;100.00
5500;BME280;2772;42.700;23.304;2023-03-19T03:09:02;95672.44;;;4.36;100.00
5500;BME280;2772;42.700;23.304;2023-03-19T03:11:29;95663.38;;;4.22;100.00
5500;BME280;2772;42.700;23.304;2023-03-19T03:13:56;95669.38;;;4.13;100.00
5500;BME280;2772;42.700;23.304;2023-03-19T03:16:24;95668.59;;;4.17;100.00
5500;BME280;2772;42.700;23.304;2023-03-19T03:18:51;95670.31;;;4.02;100.00
5500;BME280;2772;42.700;23.304;2023-03-19T03:21:18;95670.72;;;3.84;100.00
5500;BME280;2772;42.700;23.304;2023-03-19T03:23:46;95676.56;;;3.91;100.00
5500;BME280;2772;42.700;23.304;2023-03-19T03:26:13;95675.53;;;3.97;100.00
5500;BME280;2772;42.700;23.304;2023-03-19T03:28:40;95678.13;;;3.87;100.00
5500;BME280;2772;42.700;23.304;2023-03-19T03:31:08;95672.34;;;3.90;100.00
5500;BME280;2772;42.700;23.304;2023-03-19T03:33:41;95679.75;;;3.93;100.00
5500;BME280;2772;42.700;23.304;2023-03-19T03:36:11;95681.56;;;3.92;100.00
5500;BME280;2772;42.700;23.304;2023-03-19T03:38:38;95677.31;;;3.86;100.00
5500;BME280;2772;42.700;23.304;2023-03-19T03:41:05;95675.28;;;3.93;100.00
5500;BME280;2772;42.700;23.304;2023-03-19T03:43:32;95680.25;;;3.90;100.00
5500;BME280;2772;42.700;23.304;2023-03-19T03:45:59;95685.50;;;3.90;100.00
5500;BME280;2772;42.700;23.304;2023-03-19T03:48:27;95679.81;;;3.71;100.00
5500;BME280;2772;42.700;23.304;2023-03-19T03:50:56;95684.31;;;3.76;100.00
5500;BME280;2772;42.700;23.304;2023-03-19T03:53:23;95691.38;;;3.70;100.00
5500;BME280;2772;42.700;23.304;2023-03-19T03:55:50;95691.09;;;3.67;100.00
5500;BME280;2772;42.700;23.304;2023-03-19T03:58:18;95685.41;;;3.53;100.00
5500;BME280;2772;42.700;23.304;2023-03-19T04:00:45;95692.63;;;3.63;100.00
5500;BME280;2772;42.700;23.304;2023-03-19T04:03:12;95688.09;;;3.58;100.00
5500;BME280;2772;42.700;23.304;2023-03-19T04:05:39;95681.19;;;3.79;100.00
5500;BME280;2772;42.700;23.304;2023-03-19T04:08:07;95681.06;;;3.95;100.00
5500;BME280;2772;42.700;23.304;2023-03-19T04:10:34;95672.31;;;4.16;100.00
5500;BME280;2772;42.700;23.304;2023-03-19T04:13:01;95666.06;;;4.27;100.00
5500;BME280;2772;42.700;23.304;2023-03-19T04:15:28;95661.56;;;4.23;100.00
5500;BME280;2772;42.700;23.304;2023-03-19T04:17:55;95667.16;;;4.36;100.00
5500;BME280;2772;42.700;23.304;2023-03-19T04:20:22;95659.13;;;4.58;100.00
5500;BME280;2772;42.700;23.304;2023-03-19T04:22:50;95652.56;;;4.65;100.00
5500;BME280;2772;42.700;23.304;2023-03-19T04:25:18;95658.47;;;4.77;100.00
5500;BME280;2772;42.700;23.304;2023-03-19T04:27:45;95667.66;;;4.75;100.00
5500;BME280;2772;42.700;23.304;2023-03-19T04:30:12;95672.38;;;4.68;100.00
5500;BME280;2772;42.700;23.304;2023-03-19T04:32:39;95665.56;;;4.77;100.00
5500;BME280;2772;42.700;23.304;2023-03-19T04:35:09;95663.19;;;4.75;100.00
5500;BME280;2772;42.700;23.304;2023-03-19T04:37:36;95680.03;;;4.69;100.00
5500;BME280;2772;42.700;23.304;2023-03-19T04:40:03;95671.59;;;4.67;100.00
5500;BME280;2772;42.700;23.304;2023-03-19T04:42:32;95688.50;;;4.76;100.00
5500;BME280;2772;42.700;23.304;2023-03-19T04:44:58;95684.66;;;4.94;100.00
5500;BME280;2772;42.700;23.304;2023-03-19T04:47:25;95680.19;;;5.00;100.00
5500;BME280;2772;42.700;23.304;2023-03-19T04:49:52;95686.78;;;4.97;100.00
5500;BME280;2772;42.700;23.304;2023-03-19T04:52:18;95677.50;;;4.89;100.00
5500;BME280;2772;42.700;23.304;2023-03-19T04:54:45;95678.63;;;4.99;100.00
5500;BME280;2772;42.700;23.304;2023-03-19T04:57:12;95684.97;;;5.03;100.00
5500;BME280;2772;42.700;23.304;2023-03-19T04:59:40;95686.25;;;4.95;100.00
5500;BME280;2772;42.700;23.304;2023-03-19T05:02:07;95678.56;;;4.88;100.00
5500;BME280;2772;42.700;23.304;2023-03-19T05:04:34;95683.59;;;4.95;100.00
5500;BME280;2772;42.700;23.304;2023-03-19T05:07:01;95687.00;;;4.90;100.00
5500;BME280;2772;42.700;23.304;2023-03-19T05:09:28;95674.59;;;4.86;100.00
5500;BME280;2772;42.700;23.304;2023-03-19T05:11:56;95683.84;;;4.93;100.00
5500;BME280;2772;42.700;23.304;2023-03-19T05:14:23;95684.41;;;4.96;100.00
5500;BME280;2772;42.700;23.304;2023-03-19T05:16:51;95694.16;;;4.95;100.00
5500;BME280;2772;42.700;23.304;2023-03-19T05:19:18;95686.59;;;5.09;100.00
5500;BME280;2772;42.700;23.304;2023-03-19T05:21:45;95688.13;;;5.05;100.00
5500;BME280;2772;42.700;23.304;2023-03-19T05:24:12;95685.47;;;5.00;100.00
5500;BME280;2772;42.700;23.304;2023-03-19T05:26:39;95686.78;;;4.97;100.00
5500;BME280;2772;42.700;23.304;2023-03-19T05:29:05;95684.72;;;5.04;100.00
5500;BME280;2772;42.700;23.304;2023-03-19T05:31:35;95695.25;;;4.99;100.00
5500;BME280;2772;42.700;23.304;2023-03-19T05:34:04;95696.47;;;4.81;100.00
5500;BME280;2772;42.700;23.304;2023-03-19T05:36:31;95704.09;;;4.73;100.00
5500;BME280;2772;42.700;23.304;2023-03-19T05:38:57;95698.84;;;4.83;100.00
5500;BME280;2772;42.700;23.304;2023-03-19T05:41:25;95695.69;;;4.86;100.00
5500;BME280;2772;42.700;23.304;2023-03-19T05:43:51;95697.31;;;4.92;100.00
5500;BME280;2772;42.700;23.304;2023-03-19T05:46:18;95687.00;;;4.90;100.00
5500;BME280;2772;42.700;23.304;2023-03-19T05:48:45;95704.19;;;4.98;100.00
5500;BME280;2772;42.700;23.304;2023-03-19T05:51:13;95704.50;;;5.02;100.00
5500;BME280;2772;42.700;23.304;2023-03-19T05:53:40;95686.25;;;4.90;100.00
5500;BME280;2772;42.700;23.304;2023-03-19T05:56:07;95709.19;;;4.89;100.00
5500;BME280;2772;42.700;23.304;2023-03-19T05:58:34;95709.22;;;5.00;100.00
5500;BME280;2772;42.700;23.304;2023-03-19T06:01:00;95704.44;;;4.92;100.00
5500;BME280;2772;42.700;23.304;2023-03-19T06:03:27;95712.13;;;4.93;100.00
5500;BME280;2772;42.700;23.304;2023-03-19T06:05:55;95706.84;;;4.93;100.00
5500;BME280;2772;42.700;23.304;2023-03-19T06:08:23;95704.66;;;4.85;100.00
5500;BME280;2772;42.700;23.304;2023-03-19T06:10:51;95695.47;;;4.93;100.00
5500;BME280;2772;42.700;23.304;2023-03-19T06:13:18;95708.91;;;4.91;100.00
5500;BME280;2772;42.700;23.304;2023-03-19T06:15:46;95707.59;;;4.93;100.00
5500;BME280;2772;42.700;23.304;2023-03-19T06:18:13;95709.72;;;4.97;100.00
5500;BME280;2772;42.700;23.304;2023-03-19T06:20:40;95710.59;;;5.07;100.00
5500;BME280;2772;42.700;23.304;2023-03-19T06:23:07;95701.94;;;5.17;100.00
5500;BME280;2772;42.700;23.304;2023-03-19T06:25:35;95704.88;;;5.25;100.00
5500;BME280;2772;42.700;23.304;2023-03-19T06:28:02;95702.28;;;5.35;100.00
5500;BME280;2772;42.700;23.304;2023-03-19T06:30:29;95707.28;;;5.32;100.00
5500;BME280;2772;42.700;23.304;2023-03-19T06:32:56;95714.47;;;5.46;100.00
5500;BME280;2772;42.700;23.304;2023-03-19T06:35:23;95707.81;;;5.34;100.00
5500;BME280;2772;42.700;23.304;2023-03-19T06:37:50;95717.78;;;5.17;100.00
5500;BME280;2772;42.700;23.304;2023-03-19T06:40:17;95730.22;;;5.31;100.00
5500;BME280;2772;42.700;23.304;2023-03-19T06:42:46;95727.34;;;5.28;100.00
5500;BME280;2772;42.700;23.304;2023-03-19T06:45:13;95726.75;;;5.21;100.00
5500;BME280;2772;42.700;23.304;2023-03-19T06:47:41;95730.22;;;5.31;100.00
5500;BME280;2772;42.700;23.304;2023-03-19T06:50:09;95731.06;;;5.37;100.00
5500;BME280;2772;42.700;23.304;2023-03-19T06:52:36;95740.75;;;5.21;100.00
5500;BME280;2772;42.700;23.304;2023-03-19T06:55:03;95734.16;;;5.24;100.00
5500;BME280;2772;42.700;23.304;2023-03-19T06:57:30;95730.47;;;5.20;100.00
5500;BME280;2772;42.700;23.304;2023-03-19T06:59:58;95738.38;;;5.25;100.00
5500;BME280;2772;42.700;23.304;2023-03-19T07:02:25;95735.00;;;5.34;100.00
5500;BME280;2772;42.700;23.304;2023-03-19T07:04:52;95731.38;;;5.50;100.00
5500;BME280;2772;42.700;23.304;2023-03-19T07:07:19;95745.44;;;5.66;100.00
5500;BME280;2772;42.700;23.304;2023-03-19T07:09:46;95737.53;;;5.71;100.00
5500;BME280;2772;42.700;23.304;2023-03-19T07:12:13;95736.69;;;5.65;100.00
5500;BME280;2772;42.700;23.304;2023-03-19T07:14:39;95738.53;;;5.60;100.00
5500;BME280;2772;42.700;23.304;2023-03-19T07:17:07;95730.59;;;5.55;100.00
5500;BME280;2772;42.700;23.304;2023-03-19T07:19:34;95738.56;;;5.75;100.00
5500;BME280;2772;42.700;23.304;2023-03-19T07:22:01;95736.81;;;5.85;100.00
5500;BME280;2772;42.700;23.304;2023-03-19T07:24:28;95733.63;;;5.88;100.00
5500;BME280;2772;42.700;23.304;2023-03-19T07:26:54;95743.41;;;5.88;100.00
5500;BME280;2772;42.700;23.304;2023-03-19T07:29:21;95734.97;;;5.91;100.00
5500;BME280;2772;42.700;23.304;2023-03-19T07:31:48;95725.22;;;6.11;100.00
5500;BME280;2772;42.700;23.304;2023-03-19T07:34:16;95729.47;;;6.27;100.00
5500;BME280;2772;42.700;23.304;2023-03-19T07:36:43;95728.16;;;6.55;100.00
5500;BME280;2772;42.700;23.304;2023-03-19T07:39:10;95722.28;;;6.73;100.00
5500;BME280;2772;42.700;23.304;2023-03-19T07:41:36;95728.63;;;6.97;100.00
5500;BME280;2772;42.700;23.304;2023-03-19T07:44:03;95720.19;;;6.75;92.15
5500;BME280;2772;42.700;23.304;2023-03-19T07:46:30;95726.28;;;6.76;91.79
5500;BME280;2772;42.700;23.304;2023-03-19T07:48:57;95713.81;;;6.86;95.69
5500;BME280;2772;42.700;23.304;2023-03-19T07:51:25;95733.66;;;7.04;92.64
5500;BME280;2772;42.700;23.304;2023-03-19T07:53:52;95735.44;;;7.18;94.23
5500;BME280;2772;42.700;23.304;2023-03-19T07:56:19;95730.13;;;7.28;92.89
5500;BME280;2772;42.700;23.304;2023-03-19T07:58:45;95728.50;;;7.37;88.83
5500;BME280;2772;42.700;23.304;2023-03-19T08:01:12;95727.69;;;7.47;87.95
5500;BME280;2772;42.700;23.304;2023-03-19T08:03:39;95727.69;;;7.42;85.72
5500;BME280;2772;42.700;23.304;2023-03-19T08:06:06;95725.09;;;7.37;86.87
5500;BME280;2772;42.700;23.304;2023-03-19T08:08:34;95735.63;;;7.47;88.44
5500;BME280;2772;42.700;23.304;2023-03-19T08:11:01;95729.25;;;7.53;86.90
5500;BME280;2772;42.700;23.304;2023-03-19T08:13:28;95720.53;;;7.52;85.01
5500;BME280;2772;42.700;23.304;2023-03-19T08:15:56;95734.56;;;7.48;84.59
5500;BME280;2772;42.700;23.304;2023-03-19T08:18:22;95726.31;;;7.59;84.47
5500;BME280;2772;42.700;23.304;2023-03-19T08:20:49;95728.41;;;7.62;82.77
5500;BME280;2772;42.700;23.304;2023-03-19T08:23:16;95722.28;;;7.67;82.00
5500;BME280;2772;42.700;23.304;2023-03-19T08:25:45;95724.66;;;7.68;81.70
5500;BME280;2772;42.700;23.304;2023-03-19T08:28:11;95716.69;;;7.73;78.85
5500;BME280;2772;42.700;23.304;2023-03-19T08:30:38;95725.22;;;7.65;76.80
5500;BME280;2772;42.700;23.304;2023-03-19T08:33:05;95728.88;;;7.74;78.25
5500;BME280;2772;42.700;23.304;2023-03-19T08:35:32;95734.13;;;7.84;77.96
5500;BME280;2772;42.700;23.304;2023-03-19T08:37:59;95723.44;;;7.99;80.24
5500;BME280;2772;42.700;23.304;2023-03-19T08:40:26;95728.72;;;8.04;77.97
5500;BME280;2772;42.700;23.304;2023-03-19T08:42:54;95720.72;;;8.15;75.82
5500;BME280;2772;42.700;23.304;2023-03-19T08:45:21;95720.66;;;8.25;74.68
5500;BME280;2772;42.700;23.304;2023-03-19T08:47:48;95715.00;;;8.36;73.09
5500;BME280;2772;42.700;23.304;2023-03-19T08:50:16;95711.50;;;8.46;74.74
5500;BME280;2772;42.700;23.304;2023-03-19T08:52:43;95706.28;;;8.31;73.92
5500;BME280;2772;42.700;23.304;2023-03-19T08:55:11;95697.97;;;8.42;74.94
5500;BME280;2772;42.700;23.304;2023-03-19T08:57:38;95702.56;;;8.65;74.75
5500;BME280;2772;42.700;23.304;2023-03-19T09:00:07;95701.47;;;8.95;76.47
5500;BME280;2772;42.700;23.304;2023-03-19T09:02:34;95698.13;;;9.13;74.68
5500;BME280;2772;42.700;23.304;2023-03-19T09:05:01;95694.66;;;9.12;70.67
5500;BME280;2772;42.700;23.304;2023-03-19T09:07:27;95684.66;;;9.28;71.19
5500;BME280;2772;42.700;23.304;2023-03-19T09:09:54;95675.44;;;9.44;70.89
5500;BME280;2772;42.700;23.304;2023-03-19T09:12:21;95671.75;;;9.40;65.90
5500;BME280;2772;42.700;23.304;2023-03-19T09:14:48;95674.00;;;9.51;68.12
5500;BME280;2772;42.700;23.304;2023-03-19T09:17:16;95679.53;;;9.55;64.86
5500;BME280;2772;42.700;23.304;2023-03-19T09:19:43;95671.50;;;9.60;63.73
5500;BME280;2772;42.700;23.304;2023-03-19T09:22:09;95673.09;;;9.61;61.56
5500;BME280;2772;42.700;23.304;2023-03-19T09:24:36;95669.56;;;9.65;60.59
5500;BME280;2772;42.700;23.304;2023-03-19T09:27:03;95668.00;;;9.64;59.50
5500;BME280;2772;42.700;23.304;2023-03-19T09:29:30;95666.97;;;9.60;59.07
5500;BME280;2772;42.700;23.304;2023-03-19T09:31:56;95663.97;;;9.67;59.86
5500;BME280;2772;42.700;23.304;2023-03-19T09:34:26;95668.13;;;9.73;58.27
5500;BME280;2772;42.700;23.304;2023-03-19T09:36:53;95663.75;;;9.82;58.00
5500;BME280;2772;42.700;23.304;2023-03-19T09:39:19;95660.53;;;10.04;60.26
5500;BME280;2772;42.700;23.304;2023-03-19T09:41:59;95657.03;;;10.08;57.94
5500;BME280;2772;42.700;23.304;2023-03-19T09:44:30;95664.56;;;10.20;58.52
5500;BME280;2772;42.700;23.304;2023-03-19T09:47:03;95662.41;;;10.22;57.89
5500;BME280;2772;42.700;23.304;2023-03-19T09:49:38;95657.41;;;10.34;60.62
5500;BME280;2772;42.700;23.304;2023-03-19T09:52:15;95652.00;;;10.39;59.73
5500;BME280;2772;42.700;23.304;2023-03-19T09:54:48;95657.03;;;10.40;57.66
5500;BME280;2772;42.700;23.304;2023-03-19T09:57:18;95642.97;;;10.53;58.14
5500;BME280;2772;42.700;23.304;2023-03-19T09:59:45;95651.47;;;10.55;56.10
5500;BME280;2772;42.700;23.304;2023-03-19T10:02:28;95639.94;;;10.60;55.30
5500;BME280;2772;42.700;23.304;2023-03-19T10:05:06;95633.53;;;10.61;54.38
5500;BME280;2772;42.700;23.304;2023-03-19T10:07:48;95636.69;;;10.63;53.63
5500;BME280;2772;42.700;23.304;2023-03-19T10:10:34;95633.47;;;10.79;54.41
5500;BME280;2772;42.700;23.304;2023-03-19T10:13:08;95626.28;;;10.93;53.69
5500;BME280;2772;42.700;23.304;2023-03-19T10:15:37;95622.91;;;11.01;52.11
5500;BME280;2772;42.700;23.304;2023-03-19T10:18:08;95619.94;;;11.16;53.69
5500;BME280;2772;42.700;23.304;2023-03-19T10:20:46;95616.00;;;11.27;54.54
5500;BME280;2772;42.700;23.304;2023-03-19T10:23:30;95616.19;;;11.31;51.69
5500;BME280;2772;42.700;23.304;2023-03-19T10:26:02;95612.63;;;11.36;52.07
5500;BME280;2772;42.700;23.304;2023-03-19T10:28:30;95597.63;;;11.40;51.64
5500;BME280;2772;42.700;23.304;2023-03-19T10:31:04;95594.06;;;11.44;52.25
5500;BME280;2772;42.700;23.304;2023-03-19T10:33:41;95595.34;;;11.47;51.78
5500;BME280;2772;42.700;23.304;2023-03-19T10:36:11;95586.94;;;11.53;51.97
5500;BME280;2772;42.700;23.304;2023-03-19T10:38:39;95590.56;;;11.57;51.58
5500;BME280;2772;42.700;23.304;2023-03-19T10:41:18;95584.75;;;11.69;52.77
5500;BME280;2772;42.700;23.304;2023-03-19T10:43:51;95574.94;;;11.78;51.86
5500;BME280;2772;42.700;23.304;2023-03-19T10:46:18;95572.16;;;11.83;50.79
5500;BME280;2772;42.700;23.304;2023-03-19T10:48:46;95563.03;;;11.84;51.04
5500;BME280;2772;42.700;23.304;2023-03-19T10:51:16;95562.63;;;11.90;51.18
5500;BME280;2772;42.700;23.304;2023-03-19T10:53:44;95558.94;;;12.00;50.76
5500;BME280;2772;42.700;23.304;2023-03-19T10:56:17;95547.47;;;11.99;50.05
5500;BME280;2772;42.700;23.304;2023-03-19T10:58:56;95543.25;;;12.07;50.39
5500;BME280;2772;42.700;23.304;2023-03-19T11:01:27;95543.63;;;12.14;50.21
5500;BME280;2772;42.700;23.304;2023-03-19T11:03:56;95546.97;;;12.19;49.93
5500;BME280;2772;42.700;23.304;2023-03-19T11:06:25;95538.38;;;12.22;49.42
5500;BME280;2772;42.700;23.304;2023-03-19T11:08:55;95524.44;;;12.34;49.39
5500;BME280;2772;42.700;23.304;2023-03-19T11:11:24;95528.38;;;12.36;49.79
5500;BME280;2772;42.700;23.304;2023-03-19T11:13:51;95523.06;;;12.45;49.45
5500;BME280;2772;42.700;23.304;2023-03-19T11:16:18;95514.94;;;12.50;50.81
5500;BME280;2772;42.700;23.304;2023-03-19T11:18:46;95514.50;;;12.56;49.34
5500;BME280;2772;42.700;23.304;2023-03-19T11:21:24;95507.72;;;12.59;48.98
5500;BME280;2772;42.700;23.304;2023-03-19T11:23:59;95512.81;;;12.69;49.02
5500;BME280;2772;42.700;23.304;2023-03-19T11:26:27;95496.31;;;12.75;49.79
5500;BME280;2772;42.700;23.304;2023-03-19T11:28:59;95486.09;;;12.77;49.25
5500;BME280;2772;42.700;23.304;2023-03-19T11:31:32;95490.38;;;12.87;49.01
5500;BME280;2772;42.700;23.304;2023-03-19T11:34:12;95482.69;;;12.94;48.91
5500;BME280;2772;42.700;23.304;2023-03-19T11:36:51;95474.50;;;12.99;48.58
5500;BME280;2772;42.700;23.304;2023-03-19T11:39:26;95473.31;;;13.05;49.72
5500;BME280;2772;42.700;23.304;2023-03-19T11:42:08;95466.72;;;13.11;48.67
5500;BME280;2772;42.700;23.304;2023-03-19T11:44:45;95465.94;;;13.19;48.94
5500;BME280;2772;42.700;23.304;2023-03-19T11:47:24;95448.63;;;13.25;49.51
5500;BME280;2772;42.700;23.304;2023-03-19T11:50:02;95451.94;;;13.31;48.76
5500;BME280;2772;42.700;23.304;2023-03-19T11:55:36;95453.03;;;13.38;49.00
5500;BME280;2772;42.700;23.304;2023-03-19T12:01:39;95438.72;;;13.51;48.24
5500;BME280;2772;42.700;23.304;2023-03-19T12:04:41;95439.50;;;13.60;48.25
5500;BME280;2772;42.700;23.304;2023-03-19T12:07:19;95432.41;;;13.64;48.45
5500;BME280;2772;42.700;23.304;2023-03-19T12:09:56;95422.31;;;13.70;48.26
5500;BME280;2772;42.700;23.304;2023-03-19T12:12:32;95426.72;;;13.74;48.45
5500;BME280;2772;42.700;23.304;2023-03-19T12:15:11;95414.28;;;13.78;48.63
5500;BME280;2772;42.700;23.304;2023-03-19T12:17:53;95411.25;;;13.88;48.54
5500;BME280;2772;42.700;23.304;2023-03-19T12:20:28;95416.44;;;13.93;48.34
5500;BME280;2772;42.700;23.304;2023-03-19T12:23:12;95412.47;;;13.99;48.03
5500;BME280;2772;42.700;23.304;2023-03-19T12:25:53;95405.09;;;14.05;47.82
5500;BME280;2772;42.700;23.304;2023-03-19T12:28:29;95409.44;;;14.18;47.67
5500;BME280;2772;42.700;23.304;2023-03-19T12:31:23;95407.53;;;14.27;48.55
5500;BME280;2772;42.700;23.304;2023-03-19T12:34:05;95405.78;;;14.31;47.58
5500;BME280;2772;42.700;23.304;2023-03-19T12:36:37;95396.59;;;14.41;47.60
5500;BME280;2772;42.700;23.304;2023-03-19T12:39:09;95406.03;;;14.47;46.48
5500;BME280;2772;42.700;23.304;2023-03-19T12:41:42;95393.75;;;14.46;46.32
5500;BME280;2772;42.700;23.304;2023-03-19T12:44:12;95397.94;;;14.55;46.71
5500;BME280;2772;42.700;23.304;2023-03-19T12:46:48;95393.38;;;14.56;46.65
5500;BME280;2772;42.700;23.304;2023-03-19T12:49:21;95388.28;;;14.63;46.16
5500;BME280;2772;42.700;23.304;2023-03-19T12:51:53;95382.28;;;14.66;46.17
5500;BME280;2772;42.700;23.304;2023-03-19T12:54:24;95391.09;;;14.66;45.35
5500;BME280;2772;42.700;23.304;2023-03-19T12:56:59;95384.31;;;14.69;45.54
5500;BME280;2772;42.700;23.304;2023-03-19T12:59:31;95380.19;;;14.71;45.52
5500;BME280;2772;42.700;23.304;2023-03-19T13:02:07;95382.34;;;14.78;45.40
5500;BME280;2772;42.700;23.304;2023-03-19T13:04:39;95372.69;;;14.85;45.87
5500;BME280;2772;42.700;23.304;2023-03-19T13:07:10;95378.75;;;14.94;45.95
5500;BME280;2772;42.700;23.304;2023-03-19T13:09:45;95375.91;;;14.99;45.86
5500;BME280;2772;42.700;23.304;2023-03-19T13:12:19;95374.59;;;15.05;45.70
5500;BME280;2772;42.700;23.304;2023-03-19T13:14:54;95372.50;;;15.11;45.61
5500;BME280;2772;42.700;23.304;2023-03-19T13:17:31;95360.78;;;15.15;45.85
5500;BME280;2772;42.700;23.304;2023-03-19T13:20:04;95357.91;;;15.20;45.67
5500;BME280;2772;42.700;23.304;2023-03-19T13:22:35;95352.88;;;15.19;45.76
5500;BME280;2772;42.700;23.304;2023-03-19T13:25:05;95352.53;;;15.20;45.76
5500;BME280;2772;42.700;23.304;2023-03-19T13:27:34;95349.97;;;15.24;46.30
5500;BME280;2772;42.700;23.304;2023-03-19T13:30:16;95342.84;;;15.28;46.30